Time;durP1;ratioP1;P1;durP2;ratioP2;P2;SDS_P1;SDS_P2;PMS_P1;PMS_P2;Temp;Humidity;BMP_temperature;BMP_pressure;BME280_temperature;BME280_humidity;BME280_pressure;Samples;Min_cycle;Max_cycle;Signal;HPM_P1;HPM_P2
2022/01/21 00:02:03;;;;;;;8.37;1.27;;;;;;;1.05;49.80;102041.00;10428597;28;20750;-82
2022/01/21 00:07:06;;;;;;;9.33;1.93;;;;;;;0.28;50.72;102037.44;10416920;28;20237;-84
2022/01/21 00:12:08;;;;;;;9.80;1.63;;;;;;;1.19;49.04;102033.25;10400586;28;20498;-83
2022/01/21 00:17:10;;;;;;;10.17;1.70;;;;;;;0.38;50.99;102048.81;10417350;28;20185;-82
2022/01/21 00:32:55;;;;;;;5.73;1.37;;;;;;;-0.77;55.35;102064.66;10436797;28;20208;-85
2022/01/21 00:37:58;;;;;;;7.63;1.97;;;;;;;-1.17;56.83;102074.44;10435980;28;20213;-85
2022/01/21 00:48:11;;;;;;;8.50;1.37;;;;;;;0.16;52.08;102075.44;10497127;28;20235;-86
2022/01/21 00:53:14;;;;;;;8.77;1.47;;;;;;;0.84;50.99;102059.19;10482944;28;20199;-85
2022/01/21 00:58:16;;;;;;;9.07;1.40;;;;;;;0.21;53.05;102080.31;10483146;28;20230;-87
2022/01/21 01:03:19;;;;;;;8.23;2.23;;;;;;;-0.67;54.52;102087.19;10482973;28;20207;-87
2022/01/21 01:08:22;;;;;;;10.07;1.67;;;;;;;1.24;49.29;102071.53;10491080;28;20337;-86
2022/01/21 01:29:11;;;;;;;6.27;1.27;;;;;;;0.10;52.75;102082.78;10490277;28;20235;-87
2022/01/21 01:34:14;;;;;;;8.30;1.70;;;;;;;1.02;50.52;102071.28;10482093;28;20219;-86
2022/01/21 01:49:58;;;;;;;8.37;1.13;;;;;;;-0.70;55.63;102096.00;10423864;28;20629;-84
2022/01/21 01:55:01;;;;;;;10.93;1.30;;;;;;;-0.32;54.42;102086.59;10423853;28;20219;-82
2022/01/21 02:00:05;;;;;;;7.83;1.40;;;;;;;0.46;52.80;102076.31;10424835;28;20387;-86
2022/01/21 02:05:14;;;;;;;11.03;1.90;;;;;;;0.87;51.43;102059.81;10409739;28;20589;-86
2022/01/21 02:10:16;;;;;;;11.87;1.50;;;;;;;0.67;51.30;102072.13;10439252;28;20228;-84
2022/01/21 02:15:20;;;;;;;10.33;1.97;;;;;;;0.93;50.63;102054.09;10438821;28;20270;-85
2022/01/21 02:25:43;;;;;;;10.47;1.60;;;;;;;0.67;51.91;102069.31;10421068;28;20216;-85
2022/01/21 02:30:56;;;;;;;5.23;1.43;;;;;;;0.30;52.36;102073.34;10387666;28;20624;-84
2022/01/21 02:35:59;;;;;;;8.10;1.93;;;;;;;0.29;52.98;102080.00;10422408;28;20250;-84
2022/01/21 02:41:01;;;;;;;9.90;1.20;;;;;;;0.35;53.20;102079.06;10465971;28;20211;-85
2022/01/21 02:46:07;;;;;;;12.33;1.63;;;;;;;0.83;51.96;102071.41;10503383;28;20215;-86
2022/01/21 02:51:12;;;;;;;7.47;1.60;;;;;;;1.72;49.33;102060.91;10487463;28;20195;-84
2022/01/21 02:56:18;;;;;;;7.53;1.57;;;;;;;1.50;49.82;102069.09;10470745;28;20199;-84
2022/01/21 03:01:21;;;;;;;10.00;1.40;;;;;;;0.68;52.84;102087.72;10419755;28;20266;-82
2022/01/21 03:06:24;;;;;;;10.23;1.80;;;;;;;1.45;50.10;102073.69;10426443;28;20219;-82
2022/01/21 03:11:29;;;;;;;12.83;1.30;;;;;;;1.10;50.60;102087.66;10422387;28;20200;-82
2022/01/21 03:16:31;;;;;;;10.87;1.60;;;;;;;0.19;52.93;102090.81;10454046;28;20204;-83
2022/01/21 03:21:33;;;;;;;7.70;1.23;;;;;;;1.18;50.94;102084.50;10491573;28;20278;-82
2022/01/21 03:26:36;;;;;;;9.27;1.53;;;;;;;0.86;51.99;102095.16;10452850;28;20219;-82
2022/01/21 03:31:39;;;;;;;9.10;1.53;;;;;;;1.37;50.33;102097.22;10484707;28;20195;-82
2022/01/21 03:36:42;;;;;;;6.60;1.30;;;;;;;1.68;49.43;102092.31;10501210;28;20203;-84
2022/01/21 03:41:45;;;;;;;10.50;1.70;;;;;;;0.45;52.65;102098.81;10478421;28;20211;-84
2022/01/21 03:46:50;;;;;;;5.07;1.10;;;;;;;0.79;51.88;102089.69;10480364;28;20227;-83
2022/01/21 03:51:53;;;;;;;10.70;1.70;;;;;;;1.28;50.49;102081.94;10468482;28;20248;-82
2022/01/21 03:56:56;;;;;;;11.00;1.33;;;;;;;0.66;51.98;102092.69;10479706;28;20253;-83
2022/01/21 04:01:59;;;;;;;7.63;1.40;;;;;;;1.50;50.50;102096.09;10462630;28;20426;-84
2022/01/21 04:07:03;;;;;;;8.27;1.37;;;;;;;1.66;49.92;102097.28;10466920;28;20250;-84
2022/01/21 04:12:12;;;;;;;7.43;1.63;;;;;;;1.10;50.63;102102.44;10468989;28;20199;-85
2022/01/21 04:17:15;;;;;;;5.80;1.50;;;;;;;0.97;52.07;102110.16;10500283;28;20191;-86
2022/01/21 04:22:17;;;;;;;8.43;1.33;;;;;;;1.25;50.74;102096.38;10487979;28;20256;-83
2022/01/21 04:27:19;;;;;;;9.53;1.27;;;;;;;0.47;53.61;102096.66;10425484;28;20232;-84
2022/01/21 04:32:22;;;;;;;6.30;1.70;;;;;;;1.10;51.52;102079.28;10417101;28;20209;-84
2022/01/21 04:37:25;;;;;;;8.73;1.53;;;;;;;0.98;50.70;102092.38;10416871;28;20218;-85
2022/01/21 04:47:52;;;;;;;6.77;1.40;;;;;;;0.76;52.13;102083.72;10416523;28;20224;-84
2022/01/21 04:52:55;;;;;;;9.67;1.50;;;;;;;0.57;52.86;102085.78;10456615;28;20223;-83
2022/01/21 04:58:23;;;;;;;7.03;1.87;;;;;;;0.86;52.27;102084.00;10439414;28;20200;-83
2022/01/21 05:03:25;;;;;;;9.40;1.50;;;;;;;1.35;50.92;102085.47;10438315;28;20493;-84
2022/01/21 05:08:46;;;;;;;6.70;1.10;;;;;;;1.11;51.78;102081.00;10420224;28;20259;-83
2022/01/21 05:14:44;;;;;;;7.83;1.20;;;;;;;0.57;53.32;102093.28;10409633;28;20547;-83
2022/01/21 05:19:20;;;;;;;4.50;1.07;;;;;;;1.31;50.82;102091.75;10419819;28;20208;-83
2022/01/21 05:24:41;;;;;;;4.53;1.10;;;;;;;0.66;53.29;102103.81;10423919;28;20663;-83
2022/01/21 05:29:44;;;;;;;8.33;1.30;;;;;;;1.56;51.37;102107.13;10390652;28;20290;-82
2022/01/21 05:34:54;;;;;;;7.77;1.30;;;;;;;1.67;51.55;102107.34;10407961;28;20204;-82
2022/01/21 05:40:15;;;;;;;8.87;1.07;;;;;;;1.33;52.10;102111.88;10468017;28;20245;-82
2022/01/21 05:51:08;;;;;;;7.40;1.30;;;;;;;1.80;50.81;102112.63;10436929;28;20224;-83
2022/01/21 05:56:24;;;;;;;6.83;1.10;;;;;;;0.81;54.18;102123.69;10407285;28;20568;-82
2022/01/21 06:01:37;;;;;;;4.90;1.47;;;;;;;1.32;51.81;102110.16;10407772;28;20278;-83
2022/01/21 06:06:40;;;;;;;5.60;1.30;;;;;;;1.70;51.06;102106.84;10444973;28;20270;-84
2022/01/21 06:11:42;;;;;;;5.17;1.53;;;;;;;1.01;52.74;102119.72;10461744;28;20252;-84
2022/01/21 06:16:45;;;;;;;4.37;1.10;;;;;;;2.17;50.19;102111.22;10433672;28;20709;-83
2022/01/21 06:21:47;;;;;;;7.03;1.70;;;;;;;2.87;47.49;102116.44;10450848;28;20204;-83
2022/01/21 06:26:59;;;;;;;8.73;0.93;;;;;;;1.18;51.69;102134.63;10457493;28;20207;-83
2022/01/21 06:32:02;;;;;;;5.17;1.10;;;;;;;2.15;49.33;102141.34;10486659;28;20255;-83
2022/01/21 06:37:04;;;;;;;6.60;1.53;;;;;;;1.55;51.29;102144.44;10438163;28;20244;-83
2022/01/21 06:42:07;;;;;;;8.73;1.53;;;;;;;1.71;51.14;102142.00;10470870;28;20594;-84
2022/01/21 06:47:09;;;;;;;6.43;1.60;;;;;;;2.24;49.61;102142.63;10485068;28;20279;-84
2022/01/21 06:52:11;;;;;;;8.17;1.13;;;;;;;1.99;50.47;102144.88;10465408;28;20212;-82
2022/01/21 06:57:14;;;;;;;4.60;1.10;;;;;;;1.45;51.71;102163.72;10475723;28;20211;-85
2022/01/21 07:02:18;;;;;;;9.00;1.70;;;;;;;1.27;52.38;102166.59;10460444;28;20211;-83
2022/01/21 07:07:21;;;;;;;9.20;1.10;;;;;;;1.39;52.61;102164.72;10466197;28;20626;-83
2022/01/21 07:12:23;;;;;;;2.00;0.73;;;;;;;1.93;50.49;102137.50;10449025;28;20211;-85
2022/01/21 07:17:25;;;;;;;7.20;1.27;;;;;;;1.25;52.19;102143.75;10468259;28;20201;-85
2022/01/21 07:22:27;;;;;;;8.20;1.40;;;;;;;1.80;50.52;102146.94;10465194;28;20270;-84
2022/01/21 07:27:29;;;;;;;5.43;0.87;;;;;;;1.45;50.92;102160.94;10474752;28;20302;-83
2022/01/21 07:32:32;;;;;;;9.20;1.30;;;;;;;1.86;50.32;102185.06;10434575;28;20226;-84
2022/01/21 07:37:34;;;;;;;3.50;0.80;;;;;;;1.87;50.32;102192.34;10473320;28;20588;-83
2022/01/21 07:42:36;;;;;;;6.43;1.30;;;;;;;2.37;49.34;102188.09;10485345;28;20196;-84
2022/01/21 07:47:38;;;;;;;9.60;2.43;;;;;;;2.42;48.71;102196.56;10473327;28;20276;-83
2022/01/21 07:52:40;;;;;;;11.33;1.73;;;;;;;1.56;51.86;102207.47;10460338;28;20244;-83
2022/01/21 07:57:42;;;;;;;7.50;1.70;;;;;;;1.82;50.84;102199.69;10500824;28;20256;-83
2022/01/21 08:02:45;;;;;;;11.90;2.67;;;;;;;1.56;51.40;102196.31;10473759;28;20581;-85
2022/01/21 08:07:47;;;;;;;8.97;2.90;;;;;;;1.48;51.78;102188.31;10465873;28;20212;-83
2022/01/21 08:12:50;;;;;;;7.63;1.80;;;;;;;2.16;50.58;102182.09;10477569;28;20600;-82
2022/01/21 08:17:52;;;;;;;8.07;2.83;;;;;;;1.93;50.58;102173.75;10474970;28;20269;-82
2022/01/21 08:22:54;;;;;;;12.90;3.10;;;;;;;1.86;50.97;102178.63;10448667;28;20258;-83
2022/01/21 08:27:56;;;;;;;7.47;2.70;;;;;;;2.07;50.40;102177.97;10447122;28;20231;-85
2022/01/21 08:32:58;;;;;;;7.47;3.03;;;;;;;1.78;51.15;102188.19;10485829;28;20254;-82
2022/01/21 08:38:00;;;;;;;8.07;3.10;;;;;;;1.25;52.47;102191.09;10464509;28;20476;-81
2022/01/21 08:43:03;;;;;;;7.73;3.20;;;;;;;1.29;52.51;102211.81;10447668;28;20220;-84
2022/01/21 08:48:05;;;;;;;10.07;3.70;;;;;;;2.29;49.66;102194.06;10437665;28;20236;-82
2022/01/21 08:53:53;;;;;;;8.30;3.73;;;;;;;3.12;48.09;102193.41;10470199;28;20500;-83
2022/01/21 08:58:30;;;;;;;11.60;3.23;;;;;;;3.18;48.15;102184.88;10481003;28;20219;-82
2022/01/21 09:03:33;;;;;;;9.80;3.23;;;;;;;1.98;50.50;102193.41;10496216;28;20203;-82
2022/01/21 09:08:38;;;;;;;8.20;3.27;;;;;;;2.41;50.47;102192.09;10488485;28;20520;-83
2022/01/21 09:13:41;;;;;;;12.07;3.07;;;;;;;2.53;49.72;102190.94;10506699;28;20203;-83
2022/01/21 09:18:46;;;;;;;9.80;3.13;;;;;;;2.11;51.37;102193.13;10506293;28;20200;-83
2022/01/21 09:24:04;;;;;;;8.80;3.30;;;;;;;2.30;50.89;102185.44;10478510;28;20279;-84
2022/01/21 09:29:07;;;;;;;9.40;3.30;;;;;;;2.52;50.69;102193.97;10470148;28;20265;-83
2022/01/21 09:34:09;;;;;;;4.77;2.87;;;;;;;2.59;50.37;102189.94;10457459;28;20548;-84
2022/01/21 09:39:12;;;;;;;10.90;4.50;;;;;;;1.48;53.31;102196.69;10464756;28;20235;-82
2022/01/21 09:44:16;;;;;;;11.70;4.30;;;;;;;2.45;50.95;102198.84;10447796;28;20254;-82
2022/01/21 09:54:23;;;;;;;11.17;4.17;;;;;;;2.15;51.38;102177.59;10464643;28;20238;-82
2022/01/21 09:59:28;;;;;;;10.27;4.90;;;;;;;2.35;51.29;102188.31;10447232;28;20193;-82
2022/01/21 10:04:37;;;;;;;11.60;4.97;;;;;;;2.37;50.27;102207.63;10460013;28;20276;-83
2022/01/21 10:09:40;;;;;;;12.57;5.50;;;;;;;1.95;51.69;102206.97;10481664;28;20266;-82
2022/01/21 10:14:42;;;;;;;12.40;5.17;;;;;;;1.53;52.40;102221.88;10472594;28;20200;-83
2022/01/21 10:19:51;;;;;;;11.10;4.50;;;;;;;2.61;50.15;102225.97;10482178;28;20203;-83
2022/01/21 10:24:58;;;;;;;11.87;4.07;;;;;;;1.07;54.65;102231.03;10488909;28;20248;-83
2022/01/21 10:30:02;;;;;;;9.37;4.53;;;;;;;2.65;50.71;102227.19;10482228;28;20227;-82
2022/01/21 10:35:34;;;;;;;8.90;4.20;;;;;;;2.31;52.00;102209.44;10463691;28;20204;-83
2022/01/21 10:40:36;;;;;;;13.47;4.33;;;;;;;2.67;50.86;102208.25;10449279;28;20211;-83
2022/01/21 10:45:53;;;;;;;7.77;4.47;;;;;;;1.91;52.29;102212.22;10469689;28;20199;-82
2022/01/21 10:51:15;;;;;;;8.53;4.10;;;;;;;1.69;53.43;102222.25;10451587;28;20703;-82
2022/01/21 10:56:18;;;;;;;9.43;3.93;;;;;;;2.68;52.40;102203.50;10463654;28;20202;-82
2022/01/21 11:01:27;;;;;;;9.37;5.07;;;;;;;2.43;52.82;102209.44;10453431;28;20250;-82
2022/01/21 11:06:42;;;;;;;8.67;4.60;;;;;;;2.81;51.33;102195.66;10477267;28;20288;-82
2022/01/21 11:11:49;;;;;;;9.33;4.50;;;;;;;3.72;48.77;102187.16;10473732;28;20281;-82
2022/01/21 11:16:51;;;;;;;12.87;5.10;;;;;;;2.99;50.34;102177.81;10437251;28;20213;-82
2022/01/21 11:22:13;;;;;;;12.30;4.97;;;;;;;2.90;50.98;102179.34;10452055;28;20247;-83
2022/01/21 11:27:16;;;;;;;10.07;4.97;;;;;;;2.46;51.43;102192.16;10442887;28;20258;-83
2022/01/21 11:32:19;;;;;;;11.00;5.10;;;;;;;3.04;50.73;102185.44;10423089;28;20286;-82
2022/01/21 11:37:23;;;;;;;14.17;5.47;;;;;;;3.20;50.21;102187.41;10466811;28;20257;-83
2022/01/21 11:42:25;;;;;;;11.13;4.17;;;;;;;4.38;47.14;102170.09;10477238;28;20226;-83
2022/01/21 11:47:37;;;;;;;10.07;3.87;;;;;;;3.64;48.43;102163.25;10459115;28;20219;-83
2022/01/21 11:52:44;;;;;;;10.50;4.13;;;;;;;3.83;48.46;102163.81;10440023;28;20224;-83
2022/01/21 11:57:46;;;;;;;13.43;3.90;;;;;;;4.36;48.32;102160.31;10465383;28;20262;-84
2022/01/21 12:02:50;;;;;;;8.53;3.30;;;;;;;3.24;51.21;102164.31;10440392;28;20227;-82
2022/01/21 12:07:53;;;;;;;10.03;3.10;;;;;;;3.36;50.99;102157.78;10452471;28;20227;-82
2022/01/21 12:13:03;;;;;;;12.40;3.67;;;;;;;4.52;47.98;102150.13;10475376;28;20256;-83
2022/01/21 12:18:20;;;;;;;10.60;3.30;;;;;;;3.38;50.22;102153.63;10438213;28;20219;-83
2022/01/21 12:23:25;;;;;;;9.47;3.40;;;;;;;3.72;48.93;102153.59;10467403;28;20203;-83
2022/01/21 12:28:27;;;;;;;12.77;3.50;;;;;;;3.97;49.04;102148.34;10443661;28;20265;-82
2022/01/21 12:34:01;;;;;;;14.27;3.73;;;;;;;3.75;49.68;102141.84;10495343;28;20199;-82
2022/01/21 12:44:08;;;;;;;6.40;2.90;;;;;;;4.70;47.61;102149.78;10415241;28;20243;-83
2022/01/21 12:49:38;;;;;;;7.97;3.37;;;;;;;3.80;50.47;102140.00;10434704;28;20278;-83
2022/01/21 13:00:20;;;;;;;7.37;2.80;;;;;;;4.12;49.29;102139.28;10467626;28;20520;-82
2022/01/21 13:05:33;;;;;;;6.70;1.97;;;;;;;3.12;50.79;102137.50;10452320;28;20256;-83
2022/01/21 13:10:37;;;;;;;9.60;1.87;;;;;;;3.56;50.57;102128.19;10500272;28;20551;-83
2022/01/21 13:15:48;;;;;;;9.07;1.90;;;;;;;4.53;48.43;102110.66;10461384;28;20269;-81
2022/01/21 13:20:52;;;;;;;6.33;2.90;;;;;;;3.71;51.20;102112.72;10442301;28;20195;-85
2022/01/21 13:26:12;;;;;;;7.27;2.43;;;;;;;3.83;51.95;102102.25;10450127;28;20261;-83
2022/01/21 13:31:14;;;;;;;10.67;3.83;;;;;;;3.75;51.98;102109.13;10461251;28;20220;-83
2022/01/21 13:36:39;;;;;;;11.63;3.80;;;;;;;3.69;52.33;102093.41;10442115;28;20540;-83
2022/01/21 13:41:52;;;;;;;10.10;3.73;;;;;;;3.89;52.43;102092.81;10442386;28;20188;-84
2022/01/21 13:46:56;;;;;;;9.10;3.40;;;;;;;4.76;49.82;102089.88;10442778;28;20235;-83
2022/01/21 13:52:01;;;;;;;9.50;3.80;;;;;;;4.10;51.85;102089.16;10433434;28;20259;-83
2022/01/21 13:57:05;;;;;;;9.83;3.43;;;;;;;4.34;50.68;102092.50;10450866;28;20263;-83
2022/01/21 14:02:15;;;;;;;10.23;3.07;;;;;;;3.87;52.26;102090.28;10442194;28;20232;-82
2022/01/21 14:07:29;;;;;;;9.80;3.83;;;;;;;4.83;49.80;102086.84;10424387;28;20711;-84
2022/01/21 14:12:31;;;;;;;10.93;3.70;;;;;;;4.05;52.96;102086.31;10458965;28;20259;-82
2022/01/21 14:17:34;;;;;;;12.53;3.53;;;;;;;4.00;53.11;102089.03;10444631;28;20200;-83
2022/01/21 14:22:47;;;;;;;10.70;3.57;;;;;;;3.93;53.40;102082.81;10430851;28;20196;-82
2022/01/21 14:27:52;;;;;;;11.93;4.07;;;;;;;4.05;52.49;102097.50;10438578;28;20278;-83
2022/01/21 14:32:57;;;;;;;7.67;3.57;;;;;;;3.90;53.15;102091.72;10425653;28;20224;-82
2022/01/21 14:38:03;;;;;;;9.70;4.20;;;;;;;4.12;53.40;102078.53;10424105;28;20208;-82
2022/01/21 14:43:15;;;;;;;14.53;4.27;;;;;;;4.18;53.22;102085.06;10411056;28;20674;-83
2022/01/21 14:48:23;;;;;;;11.63;4.77;;;;;;;4.80;51.72;102085.41;10431683;28;20220;-83
2022/01/21 14:53:25;;;;;;;11.43;5.10;;;;;;;4.38;53.01;102083.31;10440723;28;20277;-82
2022/01/21 14:58:27;;;;;;;10.23;6.03;;;;;;;4.40;53.96;102083.88;10447063;28;20498;-82
2022/01/21 15:03:31;;;;;;;11.93;7.00;;;;;;;3.94;55.57;102084.50;10446458;28;20192;-83
2022/01/21 15:08:39;;;;;;;16.90;8.40;;;;;;;4.64;53.96;102078.00;10451450;28;20281;-83
2022/01/21 15:19:02;;;;;;;16.40;10.20;;;;;;;3.71;56.99;102077.22;10465643;28;20195;-82
2022/01/21 15:24:05;;;;;;;14.67;9.90;;;;;;;3.92;55.41;102086.69;10432161;28;20674;-83
2022/01/21 15:29:22;;;;;;;18.43;10.80;;;;;;;4.27;54.78;102084.31;10446682;28;20326;-82
2022/01/21 15:34:25;;;;;;;20.07;10.23;;;;;;;4.82;53.04;102079.56;10432117;28;20197;-82
2022/01/21 15:39:27;;;;;;;14.10;10.37;;;;;;;4.67;54.41;102083.06;10433862;28;20581;-82
2022/01/21 15:44:29;;;;;;;20.57;9.67;;;;;;;3.93;56.47;102078.06;10450661;28;20200;-83
2022/01/21 15:49:31;;;;;;;17.10;9.23;;;;;;;4.19;55.40;102076.41;10435054;28;20216;-83
2022/01/21 15:54:50;;;;;;;17.13;8.80;;;;;;;3.78;57.19;102079.81;10415832;28;20517;-83
2022/01/21 15:59:52;;;;;;;21.77;8.47;;;;;;;3.56;57.15;102066.66;10436499;28;20200;-82
2022/01/21 16:04:54;;;;;;;18.13;10.37;;;;;;;4.87;53.53;102062.78;10421907;28;20213;-83
2022/01/21 16:09:56;;;;;;;21.60;10.13;;;;;;;4.67;53.66;102055.03;10445608;28;20620;-83
2022/01/21 16:14:59;;;;;;;15.30;8.73;;;;;;;4.84;53.48;102055.75;10432306;28;20196;-84
2022/01/21 16:20:03;;;;;;;19.63;9.10;;;;;;;5.01;52.94;102052.81;10441188;28;20242;-84
2022/01/21 16:25:06;;;;;;;14.40;7.57;;;;;;;4.13;54.68;102043.00;10423050;28;20268;-83
2022/01/21 16:30:09;;;;;;;12.53;8.20;;;;;;;4.92;53.81;102024.44;10435849;28;20271;-83
2022/01/21 16:35:12;;;;;;;14.17;7.53;;;;;;;4.35;54.88;102030.66;10433433;28;20235;-83
2022/01/21 16:40:14;;;;;;;10.83;6.10;;;;;;;4.34;54.21;102028.97;10447445;28;20197;-82
2022/01/21 16:45:17;;;;;;;12.50;5.47;;;;;;;5.13;52.37;102031.03;10418018;28;20200;-82
2022/01/21 16:50:20;;;;;;;15.47;5.73;;;;;;;4.47;53.45;102029.63;10445746;28;20220;-82
2022/01/21 16:55:24;;;;;;;11.57;4.90;;;;;;;5.15;52.03;102022.34;10458049;28;20203;-82
2022/01/21 17:00:30;;;;;;;10.60;4.90;;;;;;;5.11;51.23;102031.31;10457771;28;20201;-82
2022/01/21 17:05:34;;;;;;;10.23;4.10;;;;;;;4.96;52.37;102035.94;10444288;28;20275;-82
2022/01/21 17:10:38;;;;;;;9.83;4.07;;;;;;;4.24;54.17;102040.06;10452636;28;20223;-82
2022/01/21 17:15:40;;;;;;;10.03;4.40;;;;;;;5.16;51.31;102035.25;10443476;28;20200;-82
2022/01/21 17:20:44;;;;;;;11.50;5.27;;;;;;;5.17;52.30;102032.16;10443386;28;20225;-84
2022/01/21 17:25:46;;;;;;;8.50;4.60;;;;;;;4.96;52.00;102039.59;10448694;28;20209;-82
2022/01/21 17:30:49;;;;;;;12.00;4.67;;;;;;;4.81;53.01;102028.28;10451450;28;20231;-83
2022/01/21 17:35:53;;;;;;;14.83;5.00;;;;;;;5.01;51.96;102022.84;10435072;28;20242;-81
2022/01/21 17:40:57;;;;;;;11.37;3.83;;;;;;;4.64;52.98;102033.19;10451894;28;20208;-81
2022/01/21 17:45:59;;;;;;;13.23;3.80;;;;;;;4.35;53.43;102044.66;10448878;28;20490;-83
2022/01/21 17:51:05;;;;;;;13.67;4.50;;;;;;;4.74;53.38;102042.53;10443650;28;20232;-83
2022/01/21 17:56:07;;;;;;;11.27;4.23;;;;;;;4.48;53.77;102042.53;10452019;28;20201;-83
2022/01/21 18:01:09;;;;;;;11.50;4.53;;;;;;;4.66;53.50;102042.16;10437872;28;20478;-81
2022/01/21 18:06:12;;;;;;;8.23;4.10;;;;;;;4.72;53.22;102050.34;10456539;28;20247;-83
2022/01/21 18:11:21;;;;;;;12.13;4.90;;;;;;;5.17;52.35;102042.53;10449301;28;20550;-81
2022/01/21 18:16:24;;;;;;;12.70;4.43;;;;;;;4.91;52.68;102044.31;10452602;28;20223;-83
2022/01/21 18:21:26;;;;;;;9.77;3.80;;;;;;;3.49;56.76;102052.00;10442358;28;20200;-81
2022/01/21 18:26:28;;;;;;;10.13;4.57;;;;;;;3.41;56.18;102046.88;10424570;28;20226;-84
2022/01/21 18:31:31;;;;;;;15.50;4.53;;;;;;;4.23;55.49;102063.56;10439613;28;20227;-84
2022/01/21 18:36:34;;;;;;;10.63;4.37;;;;;;;4.73;53.90;102059.59;10421994;28;20548;-85
2022/01/21 18:41:39;;;;;;;14.40;5.43;;;;;;;4.31;55.34;102056.63;10436178;28;20192;-82
2022/01/21 18:46:46;;;;;;;15.93;5.13;;;;;;;5.04;52.25;102049.44;10400487;28;20243;-85
2022/01/21 18:51:50;;;;;;;12.87;5.10;;;;;;;4.35;54.76;102066.22;10430196;28;20259;-84
2022/01/21 18:56:53;;;;;;;11.60;4.70;;;;;;;3.86;55.88;102066.19;10419288;28;20208;-81
2022/01/21 19:02:07;;;;;;;11.23;4.43;;;;;;;4.02;56.36;102064.44;10434611;28;20224;-84
2022/01/21 19:07:09;;;;;;;10.27;5.03;;;;;;;5.18;52.48;102061.03;10409468;28;20224;-82
2022/01/21 19:12:15;;;;;;;10.87;5.70;;;;;;;3.98;55.20;102074.47;10418595;28;20251;-82
2022/01/21 19:17:18;;;;;;;11.77;6.47;;;;;;;4.81;53.29;102070.31;10411943;28;20228;-82
2022/01/21 19:22:27;;;;;;;10.80;6.40;;;;;;;4.48;54.10;102073.34;10435953;28;20220;-83
2022/01/21 19:27:30;;;;;;;12.20;6.17;;;;;;;5.23;51.32;102072.31;10421383;28;20200;-81
2022/01/21 19:32:32;;;;;;;7.70;6.43;;;;;;;4.86;53.10;102089.13;10431476;28;20259;-81
2022/01/21 19:37:36;;;;;;;11.90;7.83;;;;;;;4.02;55.90;102084.03;10427779;28;20310;-82
2022/01/21 19:42:39;;;;;;;15.30;7.43;;;;;;;4.28;56.29;102086.00;10444811;28;20246;-82
2022/01/21 19:47:58;;;;;;;14.47;7.90;;;;;;;4.04;56.42;102096.66;10417843;28;20260;-82
2022/01/21 19:53:04;;;;;;;13.40;6.77;;;;;;;4.19;55.65;102097.94;10414479;28;20243;-80
2022/01/21 19:58:11;;;;;;;13.80;8.33;;;;;;;4.82;53.83;102090.75;10410404;28;20209;-81
2022/01/21 20:13:25;;;;;;;17.83;10.17;;;;;;;4.62;55.20;102086.69;10414678;28;20717;-80
2022/01/21 20:18:27;;;;;;;19.70;10.97;;;;;;;4.16;57.53;102093.72;10414193;28;20223;-80
2022/01/21 20:23:31;;;;;;;15.03;9.77;;;;;;;4.48;55.80;102088.19;10427254;28;20588;-83
2022/01/21 20:28:35;;;;;;;16.00;10.90;;;;;;;4.48;55.29;102084.53;10416346;28;20548;-84
2022/01/21 20:33:39;;;;;;;14.57;11.10;;;;;;;3.74;58.39;102095.41;10400213;28;20255;-83
2022/01/21 20:39:10;;;;;;;17.67;10.47;;;;;;;3.78;57.82;102086.25;10414600;28;20240;-80
2022/01/21 20:44:17;;;;;;;15.23;10.67;;;;;;;4.20;57.07;102078.09;10433113;28;20223;-81
2022/01/21 20:49:20;;;;;;;19.00;11.10;;;;;;;4.02;58.19;102081.22;10427142;28;20753;-81
2022/01/21 20:54:23;;;;;;;17.90;10.77;;;;;;;3.91;58.22;102082.22;10421430;28;20251;-83
2022/01/21 20:59:28;;;;;;;13.37;10.70;;;;;;;3.63;58.59;102078.50;10426088;28;20254;-81
